sensor_id;sensor_type;location;lat;lon;timestamp;pressure;altitude;pressure_sealevel;temperature;humidity
57847;BME280;43675;50.030;21.952;2023-05-22T00:01:47;99026.96;;;9.96;60.51
57847;BME280;43675;50.030;21.952;2023-05-22T00:04:14;99021.70;;;9.88;60.91
57847;BME280;43675;50.030;21.952;2023-05-22T00:06:41;99026.54;;;9.83;61.17
57847;BME280;43675;50.030;21.952;2023-05-22T00:09:08;99023.11;;;9.79;61.45
57847;BME280;43675;50.030;21.952;2023-05-22T00:11:34;99019.95;;;9.73;61.69
57847;BME280;43675;50.030;21.952;2023-05-22T00:14:01;99019.77;;;9.68;61.98
57847;BME280;43675;50.030;21.952;2023-05-22T00:16:28;99017.98;;;9.65;62.04
57847;BME280;43675;50.030;21.952;2023-05-22T00:18:54;99021.23;;;9.62;62.10
57847;BME280;43675;50.030;21.952;2023-05-22T00:21:22;99022.15;;;9.58;62.22
57847;BME280;43675;50.030;21.952;2023-05-22T00:23:49;99018.51;;;9.55;62.51
57847;BME280;43675;50.030;21.952;2023-05-22T00:26:16;99017.84;;;9.53;62.65
57847;BME280;43675;50.030;21.952;2023-05-22T00:28:42;99015.33;;;9.50;62.69
57847;BME280;43675;50.030;21.952;2023-05-22T00:31:09;99015.73;;;9.50;62.92
57847;BME280;43675;50.030;21.952;2023-05-22T00:33:35;99016.14;;;9.47;63.04
57847;BME280;43675;50.030;21.952;2023-05-22T00:36:02;99017.86;;;9.44;63.36
57847;BME280;43675;50.030;21.952;2023-05-22T00:38:33;99017.79;;;9.42;63.26
57847;BME280;43675;50.030;21.952;2023-05-22T00:41:03;99010.45;;;9.41;63.36
57847;BME280;43675;50.030;21.952;2023-05-22T00:43:30;99009.11;;;9.42;63.51
57847;BME280;43675;50.030;21.952;2023-05-22T00:45:57;99007.65;;;9.39;63.73
57847;BME280;43675;50.030;21.952;2023-05-22T00:48:24;99011.55;;;9.35;63.82
57847;BME280;43675;50.030;21.952;2023-05-22T00:50:52;99011.31;;;9.32;63.94
57847;BME280;43675;50.030;21.952;2023-05-22T00:53:20;99012.54;;;9.29;64.20
57847;BME280;43675;50.030;21.952;2023-05-22T00:55:47;99017.38;;;9.25;64.24
57847;BME280;43675;50.030;21.952;2023-05-22T00:58:16;99013.48;;;9.21;64.36
57847;BME280;43675;50.030;21.952;2023-05-22T01:00:44;99012.75;;;9.17;64.75
57847;BME280;43675;50.030;21.952;2023-05-22T01:03:11;99010.84;;;9.12;64.90
57847;BME280;43675;50.030;21.952;2023-05-22T01:05:39;99008.63;;;9.07;65.15
57847;BME280;43675;50.030;21.952;2023-05-22T01:08:07;99004.64;;;9.02;65.19
57847;BME280;43675;50.030;21.952;2023-05-22T01:10:35;99001.20;;;8.98;65.42
57847;BME280;43675;50.030;21.952;2023-05-22T01:13:16;98999.39;;;8.94;65.47
57847;BME280;43675;50.030;21.952;2023-05-22T01:15:56;98994.67;;;8.89;65.59
57847;BME280;43675;50.030;21.952;2023-05-22T01:18:42;98997.73;;;8.85;65.52
57847;BME280;43675;50.030;21.952;2023-05-22T01:21:17;98995.17;;;8.79;65.93
57847;BME280;43675;50.030;21.952;2023-05-22T01:24:07;98996.55;;;8.76;65.82
57847;BME280;43675;50.030;21.952;2023-05-22T01:32:09;99002.56;;;8.70;66.43
57847;BME280;43675;50.030;21.952;2023-05-22T01:34:39;98997.98;;;8.67;66.43
57847;BME280;43675;50.030;21.952;2023-05-22T01:37:09;98996.73;;;8.62;66.69
57847;BME280;43675;50.030;21.952;2023-05-22T01:39:37;98999.79;;;8.58;67.08
57847;BME280;43675;50.030;21.952;2023-05-22T01:42:05;98997.77;;;8.53;67.23
57847;BME280;43675;50.030;21.952;2023-05-22T01:44:32;99000.08;;;8.49;67.43
57847;BME280;43675;50.030;21.952;2023-05-22T01:46:59;99001.19;;;8.47;67.73
57847;BME280;43675;50.030;21.952;2023-05-22T01:49:27;99000.39;;;8.46;67.80
57847;BME280;43675;50.030;21.952;2023-05-22T01:51:58;98998.50;;;8.47;67.78
57847;BME280;43675;50.030;21.952;2023-05-22T01:54:48;98995.23;;;8.44;68.06
57847;BME280;43675;50.030;21.952;2023-05-22T01:57:27;98992.09;;;8.41;68.04
57847;BME280;43675;50.030;21.952;2023-05-22T02:00:06;98987.89;;;8.36;68.18
57847;BME280;43675;50.030;21.952;2023-05-22T02:02:34;98995.27;;;8.30;68.11
57847;BME280;43675;50.030;21.952;2023-05-22T02:05:03;98989.27;;;8.24;68.56
57847;BME280;43675;50.030;21.952;2023-05-22T02:07:31;98993.28;;;8.18;68.79
57847;BME280;43675;50.030;21.952;2023-05-22T02:09:59;98992.65;;;8.13;69.03
57847;BME280;43675;50.030;21.952;2023-05-22T02:12:28;98988.95;;;8.08;69.10
57847;BME280;43675;50.030;21.952;2023-05-22T02:14:55;98990.80;;;8.00;69.38
57847;BME280;43675;50.030;21.952;2023-05-22T02:17:22;98985.36;;;7.94;69.66
57847;BME280;43675;50.030;21.952;2023-05-22T02:19:48;98987.57;;;7.87;69.74
57847;BME280;43675;50.030;21.952;2023-05-22T02:22:15;98986.46;;;7.78;70.03
57847;BME280;43675;50.030;21.952;2023-05-22T02:24:45;98985.44;;;7.71;70.39
57847;BME280;43675;50.030;21.952;2023-05-22T02:27:12;98984.59;;;7.62;70.45
57847;BME280;43675;50.030;21.952;2023-05-22T02:29:39;98987.13;;;7.57;70.70
57847;BME280;43675;50.030;21.952;2023-05-22T02:32:06;98986.85;;;7.52;70.89
57847;BME280;43675;50.030;21.952;2023-05-22T02:34:33;98986.19;;;7.47;71.09
57847;BME280;43675;50.030;21.952;2023-05-22T02:37:01;98987.39;;;7.42;71.36
57847;BME280;43675;50.030;21.952;2023-05-22T02:39:29;98987.48;;;7.39;71.54
57847;BME280;43675;50.030;21.952;2023-05-22T02:41:56;98989.98;;;7.35;71.67
57847;BME280;43675;50.030;21.952;2023-05-22T02:44:22;98988.16;;;7.31;71.91
57847;BME280;43675;50.030;21.952;2023-05-22T02:46:49;98991.36;;;7.27;72.25
57847;BME280;43675;50.030;21.952;2023-05-22T02:49:15;98989.30;;;7.24;72.47
57847;BME280;43675;50.030;21.952;2023-05-22T02:51:42;98994.65;;;7.19;72.54
57847;BME280;43675;50.030;21.952;2023-05-22T02:54:08;98995.75;;;7.14;72.65
57847;BME280;43675;50.030;21.952;2023-05-22T02:56:35;98996.11;;;7.11;72.94
57847;BME280;43675;50.030;21.952;2023-05-22T02:59:02;98996.86;;;7.19;73.51
57847;BME280;43675;50.030;21.952;2023-05-22T03:01:28;98992.42;;;7.27;73.75
57847;BME280;43675;50.030;21.952;2023-05-22T03:03:55;98990.50;;;7.38;73.94
57847;BME280;43675;50.030;21.952;2023-05-22T03:06:22;98992.56;;;7.53;74.04
57847;BME280;43675;50.030;21.952;2023-05-22T03:08:48;98993.63;;;7.68;74.08
57847;BME280;43675;50.030;21.952;2023-05-22T03:11:15;98996.32;;;7.82;73.86
57847;BME280;43675;50.030;21.952;2023-05-22T03:13:42;98987.41;;;7.93;73.78
57847;BME280;43675;50.030;21.952;2023-05-22T03:16:08;98989.07;;;8.03;73.56
57847;BME280;43675;50.030;21.952;2023-05-22T03:18:35;98986.85;;;8.12;73.46
57847;BME280;43675;50.030;21.952;2023-05-22T03:21:02;98989.06;;;8.20;73.52
57847;BME280;43675;50.030;21.952;2023-05-22T03:23:30;98984.33;;;8.28;73.28
57847;BME280;43675;50.030;21.952;2023-05-22T03:25:56;98989.66;;;8.37;73.23
57847;BME280;43675;50.030;21.952;2023-05-22T03:28:23;98988.77;;;8.45;72.90
57847;BME280;43675;50.030;21.952;2023-05-22T03:30:50;98987.08;;;8.53;72.80
57847;BME280;43675;50.030;21.952;2023-05-22T03:33:16;98985.41;;;8.60;72.81
57847;BME280;43675;50.030;21.952;2023-05-22T03:35:43;98984.85;;;8.69;72.45
57847;BME280;43675;50.030;21.952;2023-05-22T03:38:10;98990.30;;;8.78;72.36
57847;BME280;43675;50.030;21.952;2023-05-22T03:40:36;98989.27;;;8.88;72.17
57847;BME280;43675;50.030;21.952;2023-05-22T03:43:03;98986.98;;;8.98;72.10
57847;BME280;43675;50.030;21.952;2023-05-22T03:45:30;98989.34;;;9.07;71.82
57847;BME280;43675;50.030;21.952;2023-05-22T03:47:56;98984.50;;;9.17;71.69
57847;BME280;43675;50.030;21.952;2023-05-22T03:50:23;98981.17;;;9.27;71.38
57847;BME280;43675;50.030;21.952;2023-05-22T03:52:49;98986.58;;;9.38;71.21
57847;BME280;43675;50.030;21.952;2023-05-22T03:55:16;98983.86;;;9.48;71.09
57847;BME280;43675;50.030;21.952;2023-05-22T03:57:42;98983.23;;;9.58;70.77
57847;BME280;43675;50.030;21.952;2023-05-22T04:00:10;98981.91;;;9.67;70.62
57847;BME280;43675;50.030;21.952;2023-05-22T04:02:36;98983.52;;;9.76;70.48
57847;BME280;43675;50.030;21.952;2023-05-22T04:05:07;98987.95;;;9.85;70.20
57847;BME280;43675;50.030;21.952;2023-05-22T04:07:34;98981.13;;;9.94;69.85
57847;BME280;43675;50.030;21.952;2023-05-22T04:10:02;98980.45;;;10.04;69.59
57847;BME280;43675;50.030;21.952;2023-05-22T04:12:29;98984.98;;;10.16;69.23
57847;BME280;43675;50.030;21.952;2023-05-22T04:14:56;98984.55;;;10.27;69.03
57847;BME280;43675;50.030;21.952;2023-05-22T04:17:25;98983.57;;;10.37;68.84
57847;BME280;43675;50.030;21.952;2023-05-22T04:19:56;98982.16;;;10.49;68.38
57847;BME280;43675;50.030;21.952;2023-05-22T04:22:23;98975.52;;;10.61;68.20
57847;BME280;43675;50.030;21.952;2023-05-22T04:24:49;98974.52;;;10.71;67.69
57847;BME280;43675;50.030;21.952;2023-05-22T04:27:16;98971.45;;;10.80;67.37
57847;BME280;43675;50.030;21.952;2023-05-22T04:29:43;98967.68;;;10.89;67.01
57847;BME280;43675;50.030;21.952;2023-05-22T04:32:09;98967.38;;;10.98;66.65
57847;BME280;43675;50.030;21.952;2023-05-22T04:34:36;98966.03;;;11.06;66.58
57847;BME280;43675;50.030;21.952;2023-05-22T04:37:04;98967.24;;;11.15;66.32
57847;BME280;43675;50.030;21.952;2023-05-22T04:39:30;98963.55;;;11.24;65.84
57847;BME280;43675;50.030;21.952;2023-05-22T04:41:57;98959.23;;;11.31;65.59
57847;BME280;43675;50.030;21.952;2023-05-22T04:44:24;98955.95;;;11.37;65.36
57847;BME280;43675;50.030;21.952;2023-05-22T04:46:50;98956.85;;;11.44;65.36
57847;BME280;43675;50.030;21.952;2023-05-22T04:49:17;98958.20;;;11.52;65.02
57847;BME280;43675;50.030;21.952;2023-05-22T04:51:43;98958.40;;;11.61;64.77
57847;BME280;43675;50.030;21.952;2023-05-22T04:54:10;98962.12;;;11.70;64.52
57847;BME280;43675;50.030;21.952;2023-05-22T04:56:37;98959.06;;;11.77;64.29
57847;BME280;43675;50.030;21.952;2023-05-22T04:59:03;98957.11;;;11.84;64.21
57847;BME280;43675;50.030;21.952;2023-05-22T05:01:30;98957.24;;;11.91;64.02
57847;BME280;43675;50.030;21.952;2023-05-22T05:03:57;98959.75;;;12.00;63.97
57847;BME280;43675;50.030;21.952;2023-05-22T05:06:23;98962.89;;;12.06;63.94
57847;BME280;43675;50.030;21.952;2023-05-22T05:08:50;98959.28;;;12.14;63.70
57847;BME280;43675;50.030;21.952;2023-05-22T05:11:17;98960.05;;;12.22;63.57
57847;BME280;43675;50.030;21.952;2023-05-22T05:13:43;98962.72;;;12.30;63.27
57847;BME280;43675;50.030;21.952;2023-05-22T05:16:10;98961.75;;;12.38;63.22
57847;BME280;43675;50.030;21.952;2023-05-22T05:18:36;98962.96;;;12.47;63.04
57847;BME280;43675;50.030;21.952;2023-05-22T05:21:06;98959.77;;;12.57;62.83
57847;BME280;43675;50.030;21.952;2023-05-22T05:23:32;98964.34;;;12.66;62.54
57847;BME280;43675;50.030;21.952;2023-05-22T05:25:59;98968.42;;;12.76;62.39
57847;BME280;43675;50.030;21.952;2023-05-22T05:28:26;98970.91;;;12.86;62.19
57847;BME280;43675;50.030;21.952;2023-05-22T05:30:52;98968.52;;;12.96;61.95
57847;BME280;43675;50.030;21.952;2023-05-22T05:33:19;98969.95;;;13.07;61.63
57847;BME280;43675;50.030;21.952;2023-05-22T05:35:46;98969.36;;;13.19;61.55
57847;BME280;43675;50.030;21.952;2023-05-22T05:38:12;98970.84;;;13.31;61.04
57847;BME280;43675;50.030;21.952;2023-05-22T05:40:39;98972.13;;;13.42;60.82
57847;BME280;43675;50.030;21.952;2023-05-22T05:43:06;98970.30;;;13.52;60.48
57847;BME280;43675;50.030;21.952;2023-05-22T05:45:32;98972.60;;;13.64;60.19
57847;BME280;43675;50.030;21.952;2023-05-22T05:47:59;98972.17;;;13.73;60.09
57847;BME280;43675;50.030;21.952;2023-05-22T05:50:25;98973.42;;;13.83;59.61
57847;BME280;43675;50.030;21.952;2023-05-22T05:52:52;98971.70;;;13.91;59.51
57847;BME280;43675;50.030;21.952;2023-05-22T05:55:19;98972.23;;;14.01;59.29
57847;BME280;43675;50.030;21.952;2023-05-22T05:57:45;98969.06;;;14.10;59.00
57847;BME280;43675;50.030;21.952;2023-05-22T06:00:12;98968.02;;;14.19;59.02
57847;BME280;43675;50.030;21.952;2023-05-22T06:02:39;98968.52;;;14.30;58.69
57847;BME280;43675;50.030;21.952;2023-05-22T06:05:06;98966.50;;;14.41;58.70
57847;BME280;43675;50.030;21.952;2023-05-22T06:07:33;98963.52;;;14.53;58.49
57847;BME280;43675;50.030;21.952;2023-05-22T06:10:00;98956.64;;;14.77;57.81
57847;BME280;43675;50.030;21.952;2023-05-22T06:12:26;98950.46;;;14.92;57.26
57847;BME280;43675;50.030;21.952;2023-05-22T06:14:53;98951.96;;;14.97;57.03
57847;BME280;43675;50.030;21.952;2023-05-22T06:17:19;98952.13;;;15.01;56.96
57847;BME280;43675;50.030;21.952;2023-05-22T06:19:46;98955.28;;;15.07;56.87
57847;BME280;43675;50.030;21.952;2023-05-22T06:22:12;98950.27;;;15.16;56.67
57847;BME280;43675;50.030;21.952;2023-05-22T06:24:39;98949.98;;;15.25;56.65
57847;BME280;43675;50.030;21.952;2023-05-22T06:27:06;98957.02;;;15.32;56.56
57847;BME280;43675;50.030;21.952;2023-05-22T06:29:32;98948.55;;;15.42;56.08
57847;BME280;43675;50.030;21.952;2023-05-22T06:31:59;98948.90;;;15.50;55.65
57847;BME280;43675;50.030;21.952;2023-05-22T06:34:25;98944.81;;;15.58;55.47
57847;BME280;43675;50.030;21.952;2023-05-22T06:36:52;98945.38;;;15.68;55.24
57847;BME280;43675;50.030;21.952;2023-05-22T06:39:20;98940.70;;;15.78;55.21
57847;BME280;43675;50.030;21.952;2023-05-22T06:41:46;98943.46;;;15.89;54.73
57847;BME280;43675;50.030;21.952;2023-05-22T06:44:13;98941.79;;;15.98;54.53
57847;BME280;43675;50.030;21.952;2023-05-22T06:46:39;98936.34;;;16.07;54.07
57847;BME280;43675;50.030;21.952;2023-05-22T06:49:06;98935.41;;;16.18;53.81
57847;BME280;43675;50.030;21.952;2023-05-22T06:51:32;98934.98;;;16.26;53.61
57847;BME280;43675;50.030;21.952;2023-05-22T06:53:59;98937.86;;;16.32;52.99
57847;BME280;43675;50.030;21.952;2023-05-22T06:56:25;98936.08;;;16.39;52.77
57847;BME280;43675;50.030;21.952;2023-05-22T06:58:52;98937.95;;;16.44;52.72
57847;BME280;43675;50.030;21.952;2023-05-22T07:01:18;98935.52;;;16.51;52.59
57847;BME280;43675;50.030;21.952;2023-05-22T07:03:45;98937.61;;;16.59;52.30
57847;BME280;43675;50.030;21.952;2023-05-22T07:06:11;98934.16;;;16.63;52.20
57847;BME280;43675;50.030;21.952;2023-05-22T07:08:38;98930.34;;;16.68;52.07
57847;BME280;43675;50.030;21.952;2023-05-22T07:11:04;98932.10;;;16.73;51.82
57847;BME280;43675;50.030;21.952;2023-05-22T07:13:31;98928.38;;;16.78;51.76
57847;BME280;43675;50.030;21.952;2023-05-22T07:15:57;98928.60;;;16.85;51.43
57847;BME280;43675;50.030;21.952;2023-05-22T07:18:24;98929.33;;;16.94;51.49
57847;BME280;43675;50.030;21.952;2023-05-22T07:20:51;98930.15;;;17.02;51.10
57847;BME280;43675;50.030;21.952;2023-05-22T07:23:17;98932.81;;;17.10;50.91
57847;BME280;43675;50.030;21.952;2023-05-22T07:25:44;98933.14;;;17.15;50.61
57847;BME280;43675;50.030;21.952;2023-05-22T07:28:10;98932.52;;;17.16;50.14
57847;BME280;43675;50.030;21.952;2023-05-22T07:30:37;98937.60;;;17.16;49.96
57847;BME280;43675;50.030;21.952;2023-05-22T07:33:04;98932.55;;;17.15;49.87
57847;BME280;43675;50.030;21.952;2023-05-22T07:35:31;98930.57;;;17.17;49.95
57847;BME280;43675;50.030;21.952;2023-05-22T07:37:57;98924.75;;;17.24;50.32
57847;BME280;43675;50.030;21.952;2023-05-22T07:40:24;98927.70;;;17.33;50.52
57847;BME280;43675;50.030;21.952;2023-05-22T07:42:51;98921.70;;;17.44;50.66
57847;BME280;43675;50.030;21.952;2023-05-22T07:45:17;98924.81;;;17.51;50.27
57847;BME280;43675;50.030;21.952;2023-05-22T07:47:44;98926.25;;;17.56;50.03
57847;BME280;43675;50.030;21.952;2023-05-22T07:50:10;98929.80;;;17.61;49.71
57847;BME280;43675;50.030;21.952;2023-05-22T07:52:37;98933.81;;;17.66;49.63
57847;BME280;43675;50.030;21.952;2023-05-22T07:55:04;98932.39;;;17.69;49.53
57847;BME280;43675;50.030;21.952;2023-05-22T07:57:31;98931.69;;;17.74;49.27
57847;BME280;43675;50.030;21.952;2023-05-22T07:59:57;98928.63;;;17.78;49.86
57847;BME280;43675;50.030;21.952;2023-05-22T08:02:24;98929.09;;;17.85;49.48
57847;BME280;43675;50.030;21.952;2023-05-22T08:04:50;98925.27;;;17.91;49.39
57847;BME280;43675;50.030;21.952;2023-05-22T08:07:17;98931.30;;;18.00;49.02
57847;BME280;43675;50.030;21.952;2023-05-22T08:09:43;98930.17;;;18.05;48.62
57847;BME280;43675;50.030;21.952;2023-05-22T08:12:10;98927.92;;;18.09;48.55
57847;BME280;43675;50.030;21.952;2023-05-22T08:14:36;98916.33;;;18.10;48.35
57847;BME280;43675;50.030;21.952;2023-05-22T08:17:03;98924.85;;;18.10;48.26
57847;BME280;43675;50.030;21.952;2023-05-22T08:19:30;98918.48;;;18.15;48.32
57847;BME280;43675;50.030;21.952;2023-05-22T08:21:56;98921.55;;;18.18;48.34
57847;BME280;43675;50.030;21.952;2023-05-22T08:24:26;98915.84;;;18.22;48.60
57847;BME280;43675;50.030;21.952;2023-05-22T08:26:54;98917.41;;;18.29;48.26
57847;BME280;43675;50.030;21.952;2023-05-22T08:29:21;98912.00;;;18.37;48.22
57847;BME280;43675;50.030;21.952;2023-05-22T08:31:47;98914.74;;;18.47;48.39
57847;BME280;43675;50.030;21.952;2023-05-22T08:34:14;98916.02;;;18.53;48.16
57847;BME280;43675;50.030;21.952;2023-05-22T08:36:41;98912.94;;;18.62;48.12
57847;BME280;43675;50.030;21.952;2023-05-22T08:39:08;98907.66;;;18.69;47.71
57847;BME280;43675;50.030;21.952;2023-05-22T08:41:35;98909.38;;;18.74;47.61
57847;BME280;43675;50.030;21.952;2023-05-22T08:44:02;98900.80;;;18.76;47.43
57847;BME280;43675;50.030;21.952;2023-05-22T08:46:29;98908.15;;;18.79;47.29
57847;BME280;43675;50.030;21.952;2023-05-22T08:48:56;98903.64;;;18.85;47.44
57847;BME280;43675;50.030;21.952;2023-05-22T08:51:27;98906.92;;;18.89;46.83
57847;BME280;43675;50.030;21.952;2023-05-22T08:53:55;98904.45;;;18.94;46.85
57847;BME280;43675;50.030;21.952;2023-05-22T08:56:22;98900.27;;;18.95;46.26
57847;BME280;43675;50.030;21.952;2023-05-22T08:58:49;98905.04;;;18.94;46.46
57847;BME280;43675;50.030;21.952;2023-05-22T09:01:16;98900.73;;;18.94;46.29
57847;BME280;43675;50.030;21.952;2023-05-22T09:03:44;98907.27;;;18.95;46.55
57847;BME280;43675;50.030;21.952;2023-05-22T09:06:11;98905.94;;;18.97;46.15
57847;BME280;43675;50.030;21.952;2023-05-22T09:08:38;98900.39;;;18.99;45.74
57847;BME280;43675;50.030;21.952;2023-05-22T09:11:04;98899.48;;;19.01;45.45
57847;BME280;43675;50.030;21.952;2023-05-22T09:13:31;98902.61;;;19.04;45.48
57847;BME280;43675;50.030;21.952;2023-05-22T09:15:59;98899.23;;;19.07;45.65
57847;BME280;43675;50.030;21.952;2023-05-22T09:18:26;98901.05;;;19.10;45.48
57847;BME280;43675;50.030;21.952;2023-05-22T09:20:56;98899.45;;;19.15;45.31
57847;BME280;43675;50.030;21.952;2023-05-22T09:23:22;98898.40;;;19.22;45.24
57847;BME280;43675;50.030;21.952;2023-05-22T09:25:49;98891.28;;;19.26;44.81
57847;BME280;43675;50.030;21.952;2023-05-22T09:28:19;98897.05;;;19.25;44.79
57847;BME280;43675;50.030;21.952;2023-05-22T09:30:49;98896.35;;;19.26;44.88
57847;BME280;43675;50.030;21.952;2023-05-22T09:33:21;98888.14;;;19.28;44.64
57847;BME280;43675;50.030;21.952;2023-05-22T09:35:51;98883.66;;;19.34;44.77
57847;BME280;43675;50.030;21.952;2023-05-22T09:38:18;98881.71;;;19.47;44.77
57847;BME280;43675;50.030;21.952;2023-05-22T09:40:51;98874.45;;;19.56;44.60
57847;BME280;43675;50.030;21.952;2023-05-22T09:43:19;98877.63;;;19.65;44.68
57847;BME280;43675;50.030;21.952;2023-05-22T09:45:46;98881.52;;;19.72;44.22
57847;BME280;43675;50.030;21.952;2023-05-22T09:48:16;98870.36;;;19.75;43.93
57847;BME280;43675;50.030;21.952;2023-05-22T09:50:52;98874.02;;;19.81;43.66
57847;BME280;43675;50.030;21.952;2023-05-22T09:53:24;98867.29;;;19.90;43.73
57847;BME280;43675;50.030;21.952;2023-05-22T09:55:52;98862.50;;;19.99;43.83
57847;BME280;43675;50.030;21.952;2023-05-22T09:58:23;98856.89;;;20.12;43.67
57847;BME280;43675;50.030;21.952;2023-05-22T10:00:52;98860.95;;;20.25;43.21
57847;BME280;43675;50.030;21.952;2023-05-22T10:03:22;98862.55;;;20.37;42.98
57847;BME280;43675;50.030;21.952;2023-05-22T10:05:53;98864.50;;;20.47;42.44
57847;BME280;43675;50.030;21.952;2023-05-22T10:08:23;98858.67;;;20.51;42.40
57847;BME280;43675;50.030;21.952;2023-05-22T10:10:51;98859.31;;;20.56;41.76
57847;BME280;43675;50.030;21.952;2023-05-22T10:13:18;98855.39;;;20.61;41.21
57847;BME280;43675;50.030;21.952;2023-05-22T10:15:46;98854.39;;;20.67;40.70
57847;BME280;43675;50.030;21.952;2023-05-22T10:18:14;98848.66;;;20.72;40.91
57847;BME280;43675;50.030;21.952;2023-05-22T10:20:41;98851.76;;;20.76;40.64
57847;BME280;43675;50.030;21.952;2023-05-22T10:23:08;98849.39;;;20.82;40.61
57847;BME280;43675;50.030;21.952;2023-05-22T10:25:38;98842.89;;;20.88;40.72
57847;BME280;43675;50.030;21.952;2023-05-22T10:28:06;98842.52;;;21.02;40.54
57847;BME280;43675;50.030;21.952;2023-05-22T10:33:21;98839.34;;;21.28;39.96
57847;BME280;43675;50.030;21.952;2023-05-22T10:35:53;98839.27;;;21.42;40.36
57847;BME280;43675;50.030;21.952;2023-05-22T10:41:18;98837.51;;;21.65;39.53
57847;BME280;43675;50.030;21.952;2023-05-22T10:43:48;98834.23;;;21.72;39.23
57847;BME280;43675;50.030;21.952;2023-05-22T10:46:15;98830.21;;;21.79;39.18
57847;BME280;43675;50.030;21.952;2023-05-22T10:48:46;98836.92;;;21.87;39.09
57847;BME280;43675;50.030;21.952;2023-05-22T10:51:17;98828.17;;;21.93;38.73
57847;BME280;43675;50.030;21.952;2023-05-22T10:53:56;98832.73;;;21.97;38.65
57847;BME280;43675;50.030;21.952;2023-05-22T10:56:31;98829.56;;;21.96;38.50
57847;BME280;43675;50.030;21.952;2023-05-22T10:59:02;98831.37;;;21.96;38.77
57847;BME280;43675;50.030;21.952;2023-05-22T11:01:30;98827.73;;;21.93;38.42
57847;BME280;43675;50.030;21.952;2023-05-22T11:08:57;98825.70;;;22.08;39.05
57847;BME280;43675;50.030;21.952;2023-05-22T11:11:25;98817.58;;;22.14;38.42
57847;BME280;43675;50.030;21.952;2023-05-22T11:14:00;98813.10;;;22.26;39.08
57847;BME280;43675;50.030;21.952;2023-05-22T11:16:30;98817.70;;;22.36;38.44
57847;BME280;43675;50.030;21.952;2023-05-22T11:19:07;98809.39;;;22.42;37.78
57847;BME280;43675;50.030;21.952;2023-05-22T11:21:45;98811.52;;;22.47;37.66
57847;BME280;43675;50.030;21.952;2023-05-22T11:24:15;98809.20;;;22.56;37.51
57847;BME280;43675;50.030;21.952;2023-05-22T11:26:42;98805.92;;;22.67;37.24
57847;BME280;43675;50.030;21.952;2023-05-22T11:29:09;98804.33;;;22.70;36.80
57847;BME280;43675;50.030;21.952;2023-05-22T11:31:36;98803.48;;;22.69;36.88
57847;BME280;43675;50.030;21.952;2023-05-22T11:34:03;98803.01;;;22.67;37.11
57847;BME280;43675;50.030;21.952;2023-05-22T11:36:31;98803.28;;;22.62;36.72
57847;BME280;43675;50.030;21.952;2023-05-22T11:38:58;98806.11;;;22.54;36.91
57847;BME280;43675;50.030;21.952;2023-05-22T11:41:33;98800.94;;;22.45;36.85
57847;BME280;43675;50.030;21.952;2023-05-22T11:44:00;98798.02;;;22.40;36.66
57847;BME280;43675;50.030;21.952;2023-05-22T11:46:27;98809.40;;;22.34;36.67
57847;BME280;43675;50.030;21.952;2023-05-22T11:48:54;98801.81;;;22.22;36.55
57847;BME280;43675;50.030;21.952;2023-05-22T11:51:21;98807.52;;;22.07;36.61
57847;BME280;43675;50.030;21.952;2023-05-22T11:53:48;98810.52;;;21.95;36.96
57847;BME280;43675;50.030;21.952;2023-05-22T11:56:18;98802.71;;;21.91;37.14
57847;BME280;43675;50.030;21.952;2023-05-22T11:58:47;98805.48;;;21.95;37.34
57847;BME280;43675;50.030;21.952;2023-05-22T12:01:14;98802.35;;;21.98;37.13
57847;BME280;43675;50.030;21.952;2023-05-22T12:03:40;98796.64;;;22.05;37.06
57847;BME280;43675;50.030;21.952;2023-05-22T12:06:07;98799.34;;;22.16;37.03
57847;BME280;43675;50.030;21.952;2023-05-22T12:08:34;98794.72;;;22.26;36.78
57847;BME280;43675;50.030;21.952;2023-05-22T12:11:03;98792.70;;;22.36;36.76
57847;BME280;43675;50.030;21.952;2023-05-22T12:13:30;98791.99;;;22.48;36.62
57847;BME280;43675;50.030;21.952;2023-05-22T12:15:58;98787.17;;;22.60;36.69
57847;BME280;43675;50.030;21.952;2023-05-22T12:18:26;98785.65;;;22.71;36.67
57847;BME280;43675;50.030;21.952;2023-05-22T12:20:56;98784.60;;;22.82;36.53
57847;BME280;43675;50.030;21.952;2023-05-22T12:23:24;98784.23;;;22.85;36.31
57847;BME280;43675;50.030;21.952;2023-05-22T12:25:58;98782.28;;;22.89;36.14
57847;BME280;43675;50.030;21.952;2023-05-22T12:28:25;98772.60;;;22.88;35.97
57847;BME280;43675;50.030;21.952;2023-05-22T12:30:53;98769.10;;;22.88;35.75
57847;BME280;43675;50.030;21.952;2023-05-22T12:33:27;98770.25;;;22.87;36.20
57847;BME280;43675;50.030;21.952;2023-05-22T12:35:55;98768.91;;;22.81;35.92
57847;BME280;43675;50.030;21.952;2023-05-22T12:38:26;98769.34;;;22.73;36.05
57847;BME280;43675;50.030;21.952;2023-05-22T12:40:56;98770.94;;;22.63;36.01
57847;BME280;43675;50.030;21.952;2023-05-22T12:43:23;98768.05;;;22.58;35.87
57847;BME280;43675;50.030;21.952;2023-05-22T12:45:50;98770.27;;;22.60;36.46
57847;BME280;43675;50.030;21.952;2023-05-22T12:48:17;98768.28;;;22.67;35.82
57847;BME280;43675;50.030;21.952;2023-05-22T12:50:44;98767.07;;;22.74;35.33
57847;BME280;43675;50.030;21.952;2023-05-22T12:53:12;98767.98;;;22.85;35.28
57847;BME280;43675;50.030;21.952;2023-05-22T12:55:39;98764.39;;;22.96;35.20
57847;BME280;43675;50.030;21.952;2023-05-22T12:58:06;98770.56;;;23.07;35.12
57847;BME280;43675;50.030;21.952;2023-05-22T13:00:33;98764.18;;;23.14;34.85
57847;BME280;43675;50.030;21.952;2023-05-22T13:03:00;98763.38;;;23.20;34.60
57847;BME280;43675;50.030;21.952;2023-05-22T13:05:26;98763.28;;;23.23;34.40
57847;BME280;43675;50.030;21.952;2023-05-22T13:07:53;98758.77;;;23.29;34.23
57847;BME280;43675;50.030;21.952;2023-05-22T13:10:19;98759.09;;;23.37;34.33
57847;BME280;43675;50.030;21.952;2023-05-22T13:12:46;98757.45;;;23.44;34.23